Flight Track Log - Related Links

Times and Time Zones

All times are in EDT time to prevent confusion due to time zone crossing. See the BJS542 flight status page for this flight to view local times or setup timezone preferences in your user account.

Time Position Orientation Groundspeed Altitude Reporting Facility
EDT Latitude Longitude Course Direction KTS MPH feet Rate Location/Type
Sat 02:15:27 PM 33.6000 -111.9333 287° West 181 208 2,500  Level Phoenix TRACON
Sat 02:16:21 PM 33.6167 -112.0000 287° West 235 270 4,900 2,125 Climbing Phoenix TRACON
Sat 02:17:03 PM 33.6572 -112.0214 336° Northwest 266 306 5,900 2,272 Climbing Albuquerque Center
Sat 02:18:04 PM 33.6772 -111.9567 70° East 269 310 8,800 2,829 Climbing Albuquerque Center
Sat 02:19:06 PM 33.5994 -111.9528 178° South 312 359 11,700 2,758 Climbing Albuquerque Center
Sat 02:20:08 PM 33.5247 -112.0178 216° Southwest 340 391 14,500 2,855 Climbing Albuquerque Center
Sat 02:21:10 PM 33.4619 -112.1097 231° Southwest 354 407 17,600 2,976 Climbing Albuquerque Center
Sat 02:22:11 PM 33.4322 -112.2439 255° West 371 427 20,600 1,659 Climbing Albuquerque Center
Sat 02:23:13 PM 33.4369 -112.3769 272° West 394 453 21,000 194 Climbing Albuquerque Center
Sat 02:24:15 PM 33.4422 -112.5147 273° West 411 473 21,000  Level Albuquerque Center
Sat 02:25:16 PM 33.4472 -112.6483 273° West 412 474 21,000 488 Level Albuquerque Center
Sat 02:26:18 PM 33.4528 -112.7811 273° West 405 466 22,000 1,355 Climbing Albuquerque Center
Sat 02:27:20 PM 33.4719 -112.9194 279° West 421 484 23,800 1,951 Climbing Albuquerque Center
Sat 02:28:21 PM 33.5039 -113.0833 283° West 425 489 26,000 2,146 Climbing Albuquerque Center
Sat 02:29:23 PM 33.5292 -113.2169 283° West 418 481 28,200 2,032 Climbing Albuquerque Center
Sat 02:30:25 PM 33.5544 -113.3494 283° West 413 475 30,200 1,854 Climbing Albuquerque Center
Sat 02:31:26 PM 33.5675 -113.4844 277° West 412 474 32,000 1,377 Climbing Albuquerque Center
Sat 02:32:27 PM 33.5644 -113.6261 269° West 423 487 33,000 1,317 Climbing Albuquerque Center
Sat 02:33:29 PM 33.5753 -113.7706 275° West 434 499 34,700 1,452 Climbing Albuquerque Center
Sat 02:34:31 PM 33.5922 -113.9136 278° West 436 502 36,000 1,415 Climbing Albuquerque Center
Sat 02:35:32 PM 33.6103 -114.0706 278° West 443 510 37,600 1,756 Climbing Albuquerque Center
Sat 02:36:34 PM 33.6300 -114.2333 278° West 439 505 39,600 1,171 Climbing Albuquerque Center
Sat 02:37:35 PM 33.6469 -114.3706 278° West 425 489 40,000 195 Climbing Albuquerque Center
Sat 02:38:37 PM 33.6628 -114.5114 278° West 426 490 40,000  Level Albuquerque Center
Sat 02:40:00 PM 33.6878 -114.7128 279° West 426 490 40,000  Level Los Angeles Center
Sat 02:41:02 PM 33.7047 -114.8525 278° West 424 488 40,000  Level Los Angeles Center
Sat 02:42:05 PM 33.7197 -114.9922 277° West 424 488 40,000  Level Los Angeles Center
Sat 02:43:07 PM 33.7364 -115.1322 278° West 425 489 40,000  Level Los Angeles Center
Sat 02:44:09 PM 33.7525 -115.2994 277° West 424 488 40,000  Level Los Angeles Center
Sat 02:45:11 PM 33.7686 -115.4397 278° West 426 490 40,000  Level Los Angeles Center
Sat 02:46:13 PM 33.7842 -115.5808 278° West 429 494 40,000  Level Los Angeles Center
Sat 02:47:15 PM 33.7992 -115.7219 277° West 427 491 40,000  Level Los Angeles Center
Sat 02:48:17 PM 33.8128 -115.8628 277° West 428 493 40,000  Level Los Angeles Center
Sat 02:49:19 PM 33.8286 -116.0056 278° West 431 496 40,000  Level Los Angeles Center
Sat 02:50:21 PM 33.8450 -116.1717 277° West 423 487 40,000  Level Los Angeles Center
Sat 02:51:23 PM 33.8592 -116.3078 277° West 416 479 40,000  Level Los Angeles Center
Sat 02:52:26 PM 33.8731 -116.4442 277° West 414 476 40,000  Level Los Angeles Center
Sat 02:53:28 PM 33.8806 -116.5811 274° West 414 476 40,000  Level Los Angeles Center
Sat 02:54:30 PM 33.9094 -116.7211 284° West 427 491 40,000  Level Los Angeles Center
Sat 02:55:32 PM 33.9447 -116.8850 285° West 426 490 40,000  Level Los Angeles Center
Sat 02:56:34 PM 33.9739 -117.0228 284° West 426 490 40,000 -581 Level Los Angeles Center
Sat 02:57:36 PM 34.0028 -117.1611 284° West 426 490 38,800 -1,306 Descending Los Angeles Center
Sat 02:58:38 PM 34.0347 -117.3056 285° West 431 496 37,300 -1,452 Descending Los Angeles Center
Sat 02:59:40 PM 34.0642 -117.4453 284° West 442 509 35,800 -1,597 Descending Los Angeles Center
Sat 03:00:42 PM 34.1006 -117.6175 284° West 445 512 34,000 -2,081 Descending Los Angeles Center
Sat 03:01:44 PM 34.1297 -117.7586 284° West 440 506 31,500 -2,419 Descending Los Angeles Center
Sat 03:02:46 PM 34.1611 -117.9053 285° West 449 517 29,000 -1,694 Descending Los Angeles Center
Sat 03:03:48 PM 34.1931 -118.0592 284° West 471 542 28,000 -484 Descending Los Angeles Center
Sat 03:04:50 PM 34.2211 -118.2003 284° West 444 511 28,000 -871 Level Los Angeles Center
Sat 03:05:52 PM 34.2544 -118.3672 284° West 432 497 26,200 -1,839 Descending Los Angeles Center
Sat 03:06:54 PM 34.2828 -118.5139 283° West 449 517 24,200 -2,016 Descending Los Angeles Center
Sat 03:07:57 PM 34.3108 -118.6558 283° West 440 506 22,000 -1,548 Descending Los Angeles Center
Sat 03:08:58 PM 34.3378 -118.7906 284° West 421 484 21,000 -976 Descending Los Angeles Center
Sat 03:10:00 PM 34.3544 -118.9161 279° West 386 444 20,000 -1,790 Descending Los Angeles Center
Sat 03:11:02 PM 34.3439 -119.0481 265° West 393 452 17,300 -2,710 Descending Los Angeles Center
Sat 03:12:04 PM 34.3342 -119.1922 265° West 360 414 14,400 -2,661 Descending Los Angeles Center
Sat 03:13:06 PM 34.3253 -119.3047 265° West 341 392 11,800 -2,081 Descending Los Angeles Center
Sat 03:14:08 PM 34.3156 -119.4119 264° West 329 379 10,100 -1,415 Descending Los Angeles Center
Sat 03:15:09 PM 34.3314 -119.5039 282° West 288 331 8,900 -1,268 Descending Los Angeles Center
Sat 03:16:11 PM 34.3492 -119.5936 284° West 279 321 7,500 -1,403 Descending Los Angeles Center
Sat 03:17:13 PM 34.3522 -119.6847 272° West 272 313 6,000 -1,210 Descending Los Angeles Center
Sat 03:18:15 PM 34.3547 -119.7656 272° West 256 295 5,000 -1,742 Descending Los Angeles Center
Sat 03:19:17 PM 34.3886 -119.8281 303° West 227 261 2,400 -1,597 Descending Los Angeles Center
Sat 03:20:19 PM 34.4069 -119.8744 296° West 181 208 1,700 -1,065 Descending Los Angeles Center
Sat 03:21:21 PM 34.4261 -119.8614 29° Northeast 138 159 200 -774 Descending Los Angeles Center
Sat 03:22:23 PM 34.4269 -119.8086 89° East 160 184 100 -97 Descending Los Angeles Center

Login

Don't have an account? Register now (free) for customized features, flight alerts, and more!